sensor_id;sensor_type;location;lat;lon;timestamp;P1;durP1;ratioP1;P2;durP2;ratioP2
15706;SDS011;7953;54.302;10.128;2023-07-22T00:02:13;9.73;;;8.73;;
15706;SDS011;7953;54.302;10.128;2023-07-22T00:04:42;11.20;;;9.43;;
15706;SDS011;7953;54.302;10.128;2023-07-22T00:07:08;10.50;;;9.37;;
15706;SDS011;7953;54.302;10.128;2023-07-22T00:09:35;10.17;;;8.40;;
15706;SDS011;7953;54.302;10.128;2023-07-22T00:12:04;12.23;;;9.80;;
15706;SDS011;7953;54.302;10.128;2023-07-22T00:14:31;11.13;;;8.40;;
15706;SDS011;7953;54.302;10.128;2023-07-22T00:16:58;10.73;;;8.87;;
15706;SDS011;7953;54.302;10.128;2023-07-22T00:19:25;9.80;;;8.80;;
15706;SDS011;7953;54.302;10.128;2023-07-22T00:21:53;10.47;;;8.60;;
15706;SDS011;7953;54.302;10.128;2023-07-22T00:24:20;9.70;;;8.80;;
15706;SDS011;7953;54.302;10.128;2023-07-22T00:26:47;8.50;;;7.40;;
15706;SDS011;7953;54.302;10.128;2023-07-22T00:29:15;9.13;;;8.17;;
15706;SDS011;7953;54.302;10.128;2023-07-22T00:31:42;9.97;;;8.03;;
15706;SDS011;7953;54.302;10.128;2023-07-22T00:34:09;9.93;;;7.30;;
15706;SDS011;7953;54.302;10.128;2023-07-22T00:36:36;9.60;;;7.83;;
15706;SDS011;7953;54.302;10.128;2023-07-22T00:39:05;10.07;;;7.63;;
15706;SDS011;7953;54.302;10.128;2023-07-22T00:41:32;8.73;;;7.30;;
15706;SDS011;7953;54.302;10.128;2023-07-22T00:43:59;9.47;;;7.23;;
15706;SDS011;7953;54.302;10.128;2023-07-22T00:46:26;8.37;;;6.73;;
15706;SDS011;7953;54.302;10.128;2023-07-22T00:48:52;6.83;;;6.13;;
15706;SDS011;7953;54.302;10.128;2023-07-22T00:51:20;7.03;;;6.33;;
15706;SDS011;7953;54.302;10.128;2023-07-22T00:53:47;7.00;;;6.30;;
15706;SDS011;7953;54.302;10.128;2023-07-22T00:56:16;10.33;;;6.53;;
15706;SDS011;7953;54.302;10.128;2023-07-22T00:58:42;6.70;;;6.10;;
15706;SDS011;7953;54.302;10.128;2023-07-22T01:01:10;8.33;;;6.27;;
15706;SDS011;7953;54.302;10.128;2023-07-22T01:03:37;6.77;;;5.70;;
15706;SDS011;7953;54.302;10.128;2023-07-22T01:06:04;7.63;;;5.87;;
15706;SDS011;7953;54.302;10.128;2023-07-22T01:08:31;6.50;;;5.43;;
15706;SDS011;7953;54.302;10.128;2023-07-22T01:10:58;6.50;;;5.50;;
15706;SDS011;7953;54.302;10.128;2023-07-22T01:13:26;7.10;;;5.17;;
15706;SDS011;7953;54.302;10.128;2023-07-22T01:15:53;5.63;;;5.00;;
15706;SDS011;7953;54.302;10.128;2023-07-22T01:18:20;16.00;;;5.30;;
15706;SDS011;7953;54.302;10.128;2023-07-22T01:20:47;6.10;;;5.47;;
15706;SDS011;7953;54.302;10.128;2023-07-22T01:23:16;6.67;;;5.30;;
15706;SDS011;7953;54.302;10.128;2023-07-22T01:25:43;6.00;;;4.57;;
15706;SDS011;7953;54.302;10.128;2023-07-22T01:28:23;6.70;;;4.97;;
15706;SDS011;7953;54.302;10.128;2023-07-22T01:30:50;7.33;;;4.93;;
15706;SDS011;7953;54.302;10.128;2023-07-22T01:33:18;6.03;;;4.13;;
15706;SDS011;7953;54.302;10.128;2023-07-22T01:35:45;7.90;;;4.50;;
15706;SDS011;7953;54.302;10.128;2023-07-22T01:38:12;7.57;;;3.93;;
15706;SDS011;7953;54.302;10.128;2023-07-22T01:40:40;6.23;;;4.73;;
15706;SDS011;7953;54.302;10.128;2023-07-22T01:43:08;5.63;;;4.10;;
15706;SDS011;7953;54.302;10.128;2023-07-22T01:45:34;5.33;;;4.33;;
15706;SDS011;7953;54.302;10.128;2023-07-22T01:48:03;9.07;;;5.27;;
15706;SDS011;7953;54.302;10.128;2023-07-22T01:50:31;4.53;;;4.13;;
15706;SDS011;7953;54.302;10.128;2023-07-22T01:52:58;5.83;;;4.53;;
15706;SDS011;7953;54.302;10.128;2023-07-22T01:55:25;6.17;;;4.40;;
15706;SDS011;7953;54.302;10.128;2023-07-22T01:57:53;5.87;;;4.57;;
15706;SDS011;7953;54.302;10.128;2023-07-22T02:00:21;6.60;;;4.70;;
15706;SDS011;7953;54.302;10.128;2023-07-22T02:02:48;5.63;;;4.20;;
15706;SDS011;7953;54.302;10.128;2023-07-22T02:05:14;6.63;;;4.43;;
15706;SDS011;7953;54.302;10.128;2023-07-22T02:07:41;5.17;;;4.60;;
15706;SDS011;7953;54.302;10.128;2023-07-22T02:10:08;5.47;;;4.10;;
15706;SDS011;7953;54.302;10.128;2023-07-22T02:12:36;5.10;;;4.40;;
15706;SDS011;7953;54.302;10.128;2023-07-22T02:15:05;5.43;;;4.33;;
15706;SDS011;7953;54.302;10.128;2023-07-22T02:24:28;8.53;;;4.50;;
15706;SDS011;7953;54.302;10.128;2023-07-22T02:26:54;6.20;;;3.60;;
15706;SDS011;7953;54.302;10.128;2023-07-22T02:32:18;5.20;;;4.10;;
15706;SDS011;7953;54.302;10.128;2023-07-22T02:34:45;5.83;;;3.30;;
15706;SDS011;7953;54.302;10.128;2023-07-22T02:37:12;4.40;;;4.00;;
15706;SDS011;7953;54.302;10.128;2023-07-22T02:39:48;4.83;;;3.63;;
15706;SDS011;7953;54.302;10.128;2023-07-22T02:42:15;5.20;;;3.53;;
15706;SDS011;7953;54.302;10.128;2023-07-22T02:44:41;5.97;;;3.70;;
15706;SDS011;7953;54.302;10.128;2023-07-22T02:47:08;5.27;;;3.97;;
15706;SDS011;7953;54.302;10.128;2023-07-22T02:49:36;4.13;;;3.10;;
15706;SDS011;7953;54.302;10.128;2023-07-22T02:52:03;8.10;;;3.93;;
15706;SDS011;7953;54.302;10.128;2023-07-22T02:54:31;5.30;;;3.33;;
15706;SDS011;7953;54.302;10.128;2023-07-22T02:57:03;5.07;;;3.40;;
15706;SDS011;7953;54.302;10.128;2023-07-22T02:59:31;4.70;;;3.53;;
15706;SDS011;7953;54.302;10.128;2023-07-22T03:01:59;4.77;;;3.37;;
15706;SDS011;7953;54.302;10.128;2023-07-22T03:04:25;4.90;;;3.40;;
15706;SDS011;7953;54.302;10.128;2023-07-22T03:06:54;4.70;;;3.30;;
15706;SDS011;7953;54.302;10.128;2023-07-22T03:09:20;4.77;;;3.33;;
15706;SDS011;7953;54.302;10.128;2023-07-22T03:11:47;3.83;;;3.43;;
15706;SDS011;7953;54.302;10.128;2023-07-22T03:14:14;4.53;;;3.00;;
15706;SDS011;7953;54.302;10.128;2023-07-22T03:16:41;3.93;;;3.10;;
15706;SDS011;7953;54.302;10.128;2023-07-22T03:19:08;3.37;;;3.07;;
15706;SDS011;7953;54.302;10.128;2023-07-22T03:21:35;4.27;;;2.57;;
15706;SDS011;7953;54.302;10.128;2023-07-22T03:24:04;4.73;;;3.33;;
15706;SDS011;7953;54.302;10.128;2023-07-22T03:26:31;6.57;;;2.93;;
15706;SDS011;7953;54.302;10.128;2023-07-22T03:28:57;3.97;;;3.10;;
15706;SDS011;7953;54.302;10.128;2023-07-22T03:31:24;4.67;;;3.30;;
15706;SDS011;7953;54.302;10.128;2023-07-22T03:33:51;3.93;;;2.80;;
15706;SDS011;7953;54.302;10.128;2023-07-22T03:36:18;5.60;;;2.93;;
15706;SDS011;7953;54.302;10.128;2023-07-22T03:38:45;3.43;;;2.83;;
15706;SDS011;7953;54.302;10.128;2023-07-22T03:41:13;4.70;;;3.07;;
15706;SDS011;7953;54.302;10.128;2023-07-22T03:43:40;3.83;;;2.57;;
15706;SDS011;7953;54.302;10.128;2023-07-22T03:46:07;3.57;;;2.30;;
15706;SDS011;7953;54.302;10.128;2023-07-22T03:48:33;3.10;;;2.73;;
15706;SDS011;7953;54.302;10.128;2023-07-22T03:51:00;3.57;;;2.87;;
15706;SDS011;7953;54.302;10.128;2023-07-22T03:53:27;5.37;;;2.90;;
15706;SDS011;7953;54.302;10.128;2023-07-22T03:55:54;3.80;;;3.00;;
15706;SDS011;7953;54.302;10.128;2023-07-22T03:58:22;4.63;;;2.87;;
15706;SDS011;7953;54.302;10.128;2023-07-22T04:00:50;3.87;;;2.50;;
15706;SDS011;7953;54.302;10.128;2023-07-22T04:03:17;4.87;;;3.07;;
15706;SDS011;7953;54.302;10.128;2023-07-22T04:05:44;2.87;;;2.57;;
15706;SDS011;7953;54.302;10.128;2023-07-22T04:08:10;4.17;;;2.93;;
15706;SDS011;7953;54.302;10.128;2023-07-22T04:10:37;5.63;;;3.20;;
15706;SDS011;7953;54.302;10.128;2023-07-22T04:13:04;4.90;;;3.10;;
15706;SDS011;7953;54.302;10.128;2023-07-22T04:15:32;4.47;;;3.30;;
15706;SDS011;7953;54.302;10.128;2023-07-22T04:17:59;3.67;;;3.07;;
15706;SDS011;7953;54.302;10.128;2023-07-22T04:20:26;4.27;;;2.93;;
15706;SDS011;7953;54.302;10.128;2023-07-22T04:22:52;3.63;;;3.10;;
15706;SDS011;7953;54.302;10.128;2023-07-22T04:25:19;6.10;;;3.20;;
15706;SDS011;7953;54.302;10.128;2023-07-22T04:27:46;5.90;;;3.03;;
15706;SDS011;7953;54.302;10.128;2023-07-22T04:30:13;4.20;;;2.70;;
15706;SDS011;7953;54.302;10.128;2023-07-22T04:32:47;4.73;;;2.80;;
15706;SDS011;7953;54.302;10.128;2023-07-22T04:35:14;3.20;;;2.67;;
15706;SDS011;7953;54.302;10.128;2023-07-22T04:37:42;4.30;;;3.10;;
15706;SDS011;7953;54.302;10.128;2023-07-22T04:40:09;2.40;;;2.20;;
15706;SDS011;7953;54.302;10.128;2023-07-22T04:42:39;3.73;;;2.97;;
15706;SDS011;7953;54.302;10.128;2023-07-22T04:45:07;3.53;;;2.57;;
15706;SDS011;7953;54.302;10.128;2023-07-22T04:47:34;5.63;;;3.17;;
15706;SDS011;7953;54.302;10.128;2023-07-22T04:50:03;5.53;;;2.90;;
15706;SDS011;7953;54.302;10.128;2023-07-22T04:52:31;3.97;;;3.20;;
15706;SDS011;7953;54.302;10.128;2023-07-22T04:54:58;6.70;;;3.20;;
15706;SDS011;7953;54.302;10.128;2023-07-22T04:57:25;6.03;;;2.97;;
15706;SDS011;7953;54.302;10.128;2023-07-22T04:59:52;3.93;;;2.80;;
15706;SDS011;7953;54.302;10.128;2023-07-22T05:02:19;8.17;;;3.60;;
15706;SDS011;7953;54.302;10.128;2023-07-22T05:04:45;4.37;;;3.13;;
15706;SDS011;7953;54.302;10.128;2023-07-22T05:07:14;6.07;;;3.60;;
15706;SDS011;7953;54.302;10.128;2023-07-22T05:09:41;3.90;;;2.57;;
15706;SDS011;7953;54.302;10.128;2023-07-22T05:12:07;4.33;;;2.77;;
15706;SDS011;7953;54.302;10.128;2023-07-22T05:14:34;5.07;;;3.20;;
15706;SDS011;7953;54.302;10.128;2023-07-22T05:17:01;6.07;;;3.07;;
15706;SDS011;7953;54.302;10.128;2023-07-22T05:19:28;3.93;;;2.67;;
15706;SDS011;7953;54.302;10.128;2023-07-22T05:21:55;6.23;;;2.80;;
15706;SDS011;7953;54.302;10.128;2023-07-22T05:24:23;4.33;;;3.23;;
15706;SDS011;7953;54.302;10.128;2023-07-22T05:26:50;5.33;;;3.37;;
15706;SDS011;7953;54.302;10.128;2023-07-22T05:29:17;4.97;;;2.80;;
15706;SDS011;7953;54.302;10.128;2023-07-22T05:31:43;6.03;;;2.83;;
15706;SDS011;7953;54.302;10.128;2023-07-22T05:34:11;4.70;;;2.70;;
15706;SDS011;7953;54.302;10.128;2023-07-22T05:36:38;5.67;;;2.53;;
15706;SDS011;7953;54.302;10.128;2023-07-22T05:39:05;4.20;;;2.80;;
15706;SDS011;7953;54.302;10.128;2023-07-22T05:41:34;3.80;;;2.50;;
15706;SDS011;7953;54.302;10.128;2023-07-22T05:44:01;6.10;;;3.03;;
15706;SDS011;7953;54.302;10.128;2023-07-22T05:46:28;3.40;;;2.67;;
15706;SDS011;7953;54.302;10.128;2023-07-22T05:48:54;4.23;;;2.60;;
15706;SDS011;7953;54.302;10.128;2023-07-22T05:51:21;3.10;;;2.50;;
15706;SDS011;7953;54.302;10.128;2023-07-22T05:53:48;3.50;;;2.20;;
15706;SDS011;7953;54.302;10.128;2023-07-22T05:56:15;5.23;;;2.50;;
15706;SDS011;7953;54.302;10.128;2023-07-22T05:58:43;4.47;;;2.50;;
15706;SDS011;7953;54.302;10.128;2023-07-22T06:01:10;3.03;;;2.23;;
15706;SDS011;7953;54.302;10.128;2023-07-22T06:03:37;2.97;;;2.23;;
15706;SDS011;7953;54.302;10.128;2023-07-22T06:06:04;2.13;;;1.90;;
15706;SDS011;7953;54.302;10.128;2023-07-22T06:08:31;5.37;;;2.50;;
15706;SDS011;7953;54.302;10.128;2023-07-22T06:10:58;2.60;;;2.17;;
15706;SDS011;7953;54.302;10.128;2023-07-22T06:13:25;2.07;;;1.87;;
15706;SDS011;7953;54.302;10.128;2023-07-22T06:15:53;2.33;;;1.80;;
15706;SDS011;7953;54.302;10.128;2023-07-22T06:18:21;3.00;;;2.07;;
15706;SDS011;7953;54.302;10.128;2023-07-22T06:20:48;3.50;;;1.60;;
15706;SDS011;7953;54.302;10.128;2023-07-22T06:23:16;2.00;;;1.77;;
15706;SDS011;7953;54.302;10.128;2023-07-22T06:25:43;1.73;;;1.60;;
15706;SDS011;7953;54.302;10.128;2023-07-22T06:28:10;1.60;;;1.50;;
15706;SDS011;7953;54.302;10.128;2023-07-22T06:30:36;2.13;;;1.53;;
15706;SDS011;7953;54.302;10.128;2023-07-22T06:33:05;2.70;;;1.73;;
15706;SDS011;7953;54.302;10.128;2023-07-22T06:35:31;2.20;;;1.60;;
15706;SDS011;7953;54.302;10.128;2023-07-22T06:37:59;2.93;;;1.20;;
15706;SDS011;7953;54.302;10.128;2023-07-22T06:40:26;2.70;;;1.40;;
15706;SDS011;7953;54.302;10.128;2023-07-22T06:42:53;1.23;;;1.13;;
15706;SDS011;7953;54.302;10.128;2023-07-22T06:45:20;1.20;;;1.10;;
15706;SDS011;7953;54.302;10.128;2023-07-22T06:47:47;6.03;;;1.70;;
15706;SDS011;7953;54.302;10.128;2023-07-22T06:50:15;2.47;;;1.50;;
15706;SDS011;7953;54.302;10.128;2023-07-22T06:52:42;2.03;;;1.80;;
15706;SDS011;7953;54.302;10.128;2023-07-22T06:55:09;1.67;;;1.27;;
15706;SDS011;7953;54.302;10.128;2023-07-22T06:57:36;1.63;;;1.20;;
15706;SDS011;7953;54.302;10.128;2023-07-22T07:00:04;3.57;;;1.30;;
15706;SDS011;7953;54.302;10.128;2023-07-22T07:02:31;1.90;;;1.30;;
15706;SDS011;7953;54.302;10.128;2023-07-22T07:04:58;1.53;;;1.30;;
15706;SDS011;7953;54.302;10.128;2023-07-22T07:07:27;2.10;;;1.00;;
15706;SDS011;7953;54.302;10.128;2023-07-22T07:09:53;1.67;;;1.50;;
15706;SDS011;7953;54.302;10.128;2023-07-22T07:12:20;1.67;;;1.27;;
15706;SDS011;7953;54.302;10.128;2023-07-22T07:14:49;1.80;;;1.60;;
15706;SDS011;7953;54.302;10.128;2023-07-22T07:17:17;3.93;;;1.70;;
15706;SDS011;7953;54.302;10.128;2023-07-22T07:19:43;1.43;;;1.33;;
15706;SDS011;7953;54.302;10.128;2023-07-22T07:22:10;2.60;;;1.40;;
15706;SDS011;7953;54.302;10.128;2023-07-22T07:24:38;2.77;;;1.60;;
15706;SDS011;7953;54.302;10.128;2023-07-22T07:27:05;3.27;;;1.87;;
15706;SDS011;7953;54.302;10.128;2023-07-22T07:29:32;4.80;;;1.83;;
15706;SDS011;7953;54.302;10.128;2023-07-22T07:31:59;3.03;;;1.47;;
15706;SDS011;7953;54.302;10.128;2023-07-22T07:34:26;3.60;;;1.40;;
15706;SDS011;7953;54.302;10.128;2023-07-22T07:36:53;2.03;;;1.30;;
15706;SDS011;7953;54.302;10.128;2023-07-22T07:39:20;1.40;;;1.30;;
15706;SDS011;7953;54.302;10.128;2023-07-22T07:41:48;4.10;;;1.20;;
15706;SDS011;7953;54.302;10.128;2023-07-22T07:44:15;1.53;;;1.10;;
15706;SDS011;7953;54.302;10.128;2023-07-22T07:46:42;1.17;;;0.93;;
15706;SDS011;7953;54.302;10.128;2023-07-22T07:49:09;1.67;;;1.10;;
15706;SDS011;7953;54.302;10.128;2023-07-22T07:51:36;1.70;;;1.00;;
15706;SDS011;7953;54.302;10.128;2023-07-22T07:54:03;2.77;;;1.23;;
15706;SDS011;7953;54.302;10.128;2023-07-22T07:56:32;2.53;;;1.00;;
15706;SDS011;7953;54.302;10.128;2023-07-22T07:59:00;4.70;;;1.40;;
15706;SDS011;7953;54.302;10.128;2023-07-22T08:01:28;1.20;;;1.07;;
15706;SDS011;7953;54.302;10.128;2023-07-22T08:03:54;2.10;;;0.93;;
15706;SDS011;7953;54.302;10.128;2023-07-22T08:06:21;1.97;;;0.83;;
15706;SDS011;7953;54.302;10.128;2023-07-22T08:08:48;2.00;;;1.00;;
15706;SDS011;7953;54.302;10.128;2023-07-22T08:11:15;3.47;;;1.13;;
15706;SDS011;7953;54.302;10.128;2023-07-22T08:13:42;2.97;;;1.10;;
15706;SDS011;7953;54.302;10.128;2023-07-22T08:16:12;2.37;;;1.30;;
15706;SDS011;7953;54.302;10.128;2023-07-22T08:18:40;2.57;;;1.03;;
15706;SDS011;7953;54.302;10.128;2023-07-22T08:21:07;1.67;;;0.90;;
15706;SDS011;7953;54.302;10.128;2023-07-22T08:23:34;2.30;;;1.03;;
15706;SDS011;7953;54.302;10.128;2023-07-22T08:26:01;2.17;;;1.17;;
15706;SDS011;7953;54.302;10.128;2023-07-22T08:28:30;1.67;;;0.80;;
15706;SDS011;7953;54.302;10.128;2023-07-22T08:30:57;1.60;;;1.03;;
15706;SDS011;7953;54.302;10.128;2023-07-22T08:33:27;1.37;;;0.90;;
15706;SDS011;7953;54.302;10.128;2023-07-22T08:35:54;2.07;;;1.00;;
15706;SDS011;7953;54.302;10.128;2023-07-22T08:38:20;1.20;;;1.00;;
15706;SDS011;7953;54.302;10.128;2023-07-22T08:40:48;2.30;;;1.17;;
15706;SDS011;7953;54.302;10.128;2023-07-22T08:43:16;2.57;;;1.23;;
15706;SDS011;7953;54.302;10.128;2023-07-22T08:45:46;1.10;;;0.93;;
15706;SDS011;7953;54.302;10.128;2023-07-22T08:48:15;1.97;;;0.90;;
15706;SDS011;7953;54.302;10.128;2023-07-22T08:50:45;2.23;;;1.60;;
15706;SDS011;7953;54.302;10.128;2023-07-22T08:53:21;2.50;;;0.80;;
15706;SDS011;7953;54.302;10.128;2023-07-22T08:55:50;1.00;;;0.83;;
15706;SDS011;7953;54.302;10.128;2023-07-22T08:58:17;1.20;;;0.83;;
15706;SDS011;7953;54.302;10.128;2023-07-22T09:00:44;1.90;;;0.70;;
15706;SDS011;7953;54.302;10.128;2023-07-22T09:03:11;1.63;;;1.03;;
15706;SDS011;7953;54.302;10.128;2023-07-22T09:05:39;0.90;;;0.70;;
15706;SDS011;7953;54.302;10.128;2023-07-22T09:08:07;4.17;;;1.40;;
15706;SDS011;7953;54.302;10.128;2023-07-22T09:10:34;2.67;;;1.00;;
15706;SDS011;7953;54.302;10.128;2023-07-22T09:13:02;1.77;;;0.93;;
15706;SDS011;7953;54.302;10.128;2023-07-22T09:15:34;2.30;;;0.70;;
15706;SDS011;7953;54.302;10.128;2023-07-22T09:18:02;1.27;;;0.90;;
15706;SDS011;7953;54.302;10.128;2023-07-22T09:20:29;1.30;;;1.07;;
15706;SDS011;7953;54.302;10.128;2023-07-22T09:22:56;2.50;;;1.03;;
15706;SDS011;7953;54.302;10.128;2023-07-22T09:25:26;1.13;;;0.87;;
15706;SDS011;7953;54.302;10.128;2023-07-22T09:27:55;2.13;;;1.30;;
15706;SDS011;7953;54.302;10.128;2023-07-22T09:30:25;0.97;;;0.70;;
15706;SDS011;7953;54.302;10.128;2023-07-22T09:32:53;2.77;;;0.97;;
15706;SDS011;7953;54.302;10.128;2023-07-22T09:35:22;1.50;;;0.77;;
15706;SDS011;7953;54.302;10.128;2023-07-22T09:37:50;1.73;;;1.00;;
15706;SDS011;7953;54.302;10.128;2023-07-22T09:40:19;2.67;;;1.03;;
15706;SDS011;7953;54.302;10.128;2023-07-22T09:42:49;1.80;;;1.00;;
15706;SDS011;7953;54.302;10.128;2023-07-22T09:45:18;3.70;;;1.20;;
15706;SDS011;7953;54.302;10.128;2023-07-22T09:47:46;0.97;;;0.90;;
15706;SDS011;7953;54.302;10.128;2023-07-22T09:50:15;1.57;;;0.80;;
15706;SDS011;7953;54.302;10.128;2023-07-22T09:52:47;4.17;;;1.20;;
15706;SDS011;7953;54.302;10.128;2023-07-22T09:55:15;1.70;;;1.00;;
15706;SDS011;7953;54.302;10.128;2023-07-22T09:57:43;1.47;;;0.93;;
15706;SDS011;7953;54.302;10.128;2023-07-22T10:00:14;3.03;;;0.90;;
15706;SDS011;7953;54.302;10.128;2023-07-22T10:02:42;1.83;;;0.70;;
15706;SDS011;7953;54.302;10.128;2023-07-22T10:05:13;2.20;;;1.30;;
15706;SDS011;7953;54.302;10.128;2023-07-22T10:07:46;1.27;;;1.13;;
15706;SDS011;7953;54.302;10.128;2023-07-22T10:10:16;1.47;;;0.80;;
15706;SDS011;7953;54.302;10.128;2023-07-22T10:12:44;1.73;;;1.10;;
15706;SDS011;7953;54.302;10.128;2023-07-22T10:15:12;2.93;;;1.23;;
15706;SDS011;7953;54.302;10.128;2023-07-22T10:17:43;2.80;;;1.43;;
15706;SDS011;7953;54.302;10.128;2023-07-22T10:20:11;2.80;;;1.30;;
15706;SDS011;7953;54.302;10.128;2023-07-22T10:22:40;3.27;;;1.30;;
15706;SDS011;7953;54.302;10.128;2023-07-22T10:25:10;3.47;;;1.10;;
15706;SDS011;7953;54.302;10.128;2023-07-22T10:27:38;1.83;;;1.10;;
15706;SDS011;7953;54.302;10.128;2023-07-22T10:30:07;2.80;;;1.37;;
15706;SDS011;7953;54.302;10.128;2023-07-22T10:32:37;4.00;;;1.50;;
15706;SDS011;7953;54.302;10.128;2023-07-22T10:35:05;1.63;;;1.17;;
15706;SDS011;7953;54.302;10.128;2023-07-22T10:37:36;1.10;;;1.00;;
15706;SDS011;7953;54.302;10.128;2023-07-22T10:40:16;1.77;;;0.93;;
15706;SDS011;7953;54.302;10.128;2023-07-22T10:42:50;1.13;;;0.80;;
15706;SDS011;7953;54.302;10.128;2023-07-22T10:45:25;2.03;;;1.20;;
15706;SDS011;7953;54.302;10.128;2023-07-22T10:48:01;2.80;;;1.10;;
15706;SDS011;7953;54.302;10.128;2023-07-22T10:50:39;1.60;;;0.80;;
15706;SDS011;7953;54.302;10.128;2023-07-22T10:53:08;1.30;;;1.20;;
15706;SDS011;7953;54.302;10.128;2023-07-22T10:58:31;1.90;;;1.20;;
15706;SDS011;7953;54.302;10.128;2023-07-22T11:06:51;1.80;;;1.17;;
15706;SDS011;7953;54.302;10.128;2023-07-22T11:09:35;3.63;;;1.33;;
15706;SDS011;7953;54.302;10.128;2023-07-22T11:12:04;0.97;;;0.87;;
15706;SDS011;7953;54.302;10.128;2023-07-22T11:14:34;1.73;;;0.97;;
15706;SDS011;7953;54.302;10.128;2023-07-22T11:17:03;1.63;;;1.03;;
15706;SDS011;7953;54.302;10.128;2023-07-22T11:19:34;1.77;;;1.03;;
15706;SDS011;7953;54.302;10.128;2023-07-22T11:22:01;1.30;;;1.00;;
15706;SDS011;7953;54.302;10.128;2023-07-22T11:24:29;4.53;;;1.20;;
15706;SDS011;7953;54.302;10.128;2023-07-22T11:26:56;1.70;;;1.20;;
15706;SDS011;7953;54.302;10.128;2023-07-22T11:29:22;1.27;;;1.17;;
15706;SDS011;7953;54.302;10.128;2023-07-22T11:31:50;3.03;;;1.53;;
15706;SDS011;7953;54.302;10.128;2023-07-22T11:34:18;2.80;;;1.30;;
15706;SDS011;7953;54.302;10.128;2023-07-22T11:36:47;2.17;;;1.17;;
15706;SDS011;7953;54.302;10.128;2023-07-22T11:39:15;1.17;;;0.93;;
15706;SDS011;7953;54.302;10.128;2023-07-22T11:41:44;2.37;;;1.00;;
15706;SDS011;7953;54.302;10.128;2023-07-22T11:44:12;1.07;;;0.93;;
15706;SDS011;7953;54.302;10.128;2023-07-22T11:46:46;1.90;;;0.93;;
15706;SDS011;7953;54.302;10.128;2023-07-22T11:49:21;1.73;;;0.97;;
15706;SDS011;7953;54.302;10.128;2023-07-22T11:51:55;6.40;;;1.40;;
15706;SDS011;7953;54.302;10.128;2023-07-22T11:54:23;2.00;;;1.17;;
15706;SDS011;7953;54.302;10.128;2023-07-22T11:56:50;2.93;;;1.40;;
15706;SDS011;7953;54.302;10.128;2023-07-22T11:59:17;4.17;;;1.23;;
15706;SDS011;7953;54.302;10.128;2023-07-22T12:01:57;2.80;;;1.43;;
15706;SDS011;7953;54.302;10.128;2023-07-22T12:04:26;3.13;;;1.30;;
15706;SDS011;7953;54.302;10.128;2023-07-22T12:06:54;1.60;;;1.10;;
15706;SDS011;7953;54.302;10.128;2023-07-22T12:09:22;5.07;;;1.77;;
15706;SDS011;7953;54.302;10.128;2023-07-22T12:11:54;1.93;;;1.13;;
15706;SDS011;7953;54.302;10.128;2023-07-22T12:14:22;2.50;;;1.27;;
15706;SDS011;7953;54.302;10.128;2023-07-22T12:16:52;2.40;;;1.30;;
15706;SDS011;7953;54.302;10.128;2023-07-22T12:19:21;1.50;;;1.30;;
15706;SDS011;7953;54.302;10.128;2023-07-22T12:21:48;3.23;;;1.50;;
15706;SDS011;7953;54.302;10.128;2023-07-22T12:24:16;2.10;;;1.53;;
15706;SDS011;7953;54.302;10.128;2023-07-22T12:26:43;3.70;;;1.87;;
15706;SDS011;7953;54.302;10.128;2023-07-22T12:29:10;2.17;;;1.30;;
15706;SDS011;7953;54.302;10.128;2023-07-22T12:31:37;1.60;;;1.40;;
15706;SDS011;7953;54.302;10.128;2023-07-22T12:34:03;2.43;;;1.60;;
15706;SDS011;7953;54.302;10.128;2023-07-22T12:36:30;1.33;;;1.10;;
15706;SDS011;7953;54.302;10.128;2023-07-22T12:38:57;2.13;;;1.50;;
15706;SDS011;7953;54.302;10.128;2023-07-22T12:41:25;3.37;;;1.50;;
15706;SDS011;7953;54.302;10.128;2023-07-22T12:43:52;2.60;;;1.53;;
15706;SDS011;7953;54.302;10.128;2023-07-22T12:46:19;2.50;;;1.53;;
15706;SDS011;7953;54.302;10.128;2023-07-22T12:48:46;2.13;;;1.30;;
15706;SDS011;7953;54.302;10.128;2023-07-22T12:51:12;1.50;;;1.40;;
15706;SDS011;7953;54.302;10.128;2023-07-22T12:53:39;2.43;;;1.60;;
15706;SDS011;7953;54.302;10.128;2023-07-22T12:56:06;2.23;;;1.60;;
15706;SDS011;7953;54.302;10.128;2023-07-22T12:58:34;1.97;;;1.47;;
15706;SDS011;7953;54.302;10.128;2023-07-22T13:01:01;2.67;;;1.13;;
15706;SDS011;7953;54.302;10.128;2023-07-22T13:03:28;1.77;;;1.50;;
15706;SDS011;7953;54.302;10.128;2023-07-22T13:05:55;2.13;;;1.70;;
15706;SDS011;7953;54.302;10.128;2023-07-22T13:08:22;1.13;;;1.03;;
15706;SDS011;7953;54.302;10.128;2023-07-22T13:10:48;3.60;;;1.50;;
15706;SDS011;7953;54.302;10.128;2023-07-22T13:13:15;3.53;;;1.47;;
15706;SDS011;7953;54.302;10.128;2023-07-22T13:15:44;2.57;;;1.30;;
15706;SDS011;7953;54.302;10.128;2023-07-22T13:18:10;2.97;;;1.20;;
15706;SDS011;7953;54.302;10.128;2023-07-22T13:20:38;3.43;;;1.37;;
15706;SDS011;7953;54.302;10.128;2023-07-22T13:23:05;4.30;;;1.50;;
15706;SDS011;7953;54.302;10.128;2023-07-22T13:25:32;1.33;;;1.20;;
15706;SDS011;7953;54.302;10.128;2023-07-22T13:27:59;2.60;;;1.40;;
15706;SDS011;7953;54.302;10.128;2023-07-22T13:30:26;2.37;;;1.50;;
15706;SDS011;7953;54.302;10.128;2023-07-22T13:32:55;2.13;;;1.30;;
15706;SDS011;7953;54.302;10.128;2023-07-22T13:35:22;2.53;;;1.60;;
15706;SDS011;7953;54.302;10.128;2023-07-22T13:37:49;1.37;;;1.27;;
15706;SDS011;7953;54.302;10.128;2023-07-22T13:40:15;1.87;;;1.37;;
15706;SDS011;7953;54.302;10.128;2023-07-22T13:42:42;1.90;;;1.47;;
15706;SDS011;7953;54.302;10.128;2023-07-22T13:45:09;2.77;;;1.80;;
15706;SDS011;7953;54.302;10.128;2023-07-22T13:47:36;2.20;;;1.97;;
15706;SDS011;7953;54.302;10.128;2023-07-22T13:50:05;2.40;;;1.90;;
15706;SDS011;7953;54.302;10.128;2023-07-22T13:52:32;3.70;;;1.67;;
15706;SDS011;7953;54.302;10.128;2023-07-22T13:54:58;3.10;;;1.73;;
15706;SDS011;7953;54.302;10.128;2023-07-22T13:57:25;2.10;;;1.90;;
15706;SDS011;7953;54.302;10.128;2023-07-22T13:59:54;2.53;;;2.20;;
15706;SDS011;7953;54.302;10.128;2023-07-22T14:02:20;4.27;;;2.30;;
15706;SDS011;7953;54.302;10.128;2023-07-22T14:04:47;2.87;;;2.20;;
15706;SDS011;7953;54.302;10.128;2023-07-22T14:07:15;3.00;;;2.70;;
15706;SDS011;7953;54.302;10.128;2023-07-22T14:09:42;3.87;;;3.47;;
15706;SDS011;7953;54.302;10.128;2023-07-22T14:12:09;4.40;;;3.37;;
15706;SDS011;7953;54.302;10.128;2023-07-22T14:14:36;4.67;;;3.77;;
15706;SDS011;7953;54.302;10.128;2023-07-22T14:17:03;5.00;;;4.03;;
15706;SDS011;7953;54.302;10.128;2023-07-22T14:19:30;5.07;;;4.07;;
15706;SDS011;7953;54.302;10.128;2023-07-22T14:21:57;5.67;;;4.30;;
15706;SDS011;7953;54.302;10.128;2023-07-22T14:24:25;4.70;;;3.97;;
15706;SDS011;7953;54.302;10.128;2023-07-22T14:26:52;6.27;;;4.63;;
15706;SDS011;7953;54.302;10.128;2023-07-22T14:29:19;5.80;;;5.17;;
15706;SDS011;7953;54.302;10.128;2023-07-22T14:31:46;7.10;;;4.80;;
15706;SDS011;7953;54.302;10.128;2023-07-22T14:34:13;7.57;;;4.73;;
15706;SDS011;7953;54.302;10.128;2023-07-22T14:36:40;7.17;;;4.87;;
15706;SDS011;7953;54.302;10.128;2023-07-22T14:39:07;8.50;;;5.00;;
15706;SDS011;7953;54.302;10.128;2023-07-22T14:41:35;5.90;;;5.20;;
15706;SDS011;7953;54.302;10.128;2023-07-22T14:44:02;5.97;;;5.13;;
15706;SDS011;7953;54.302;10.128;2023-07-22T14:46:29;5.87;;;5.00;;
15706;SDS011;7953;54.302;10.128;2023-07-22T14:48:56;5.77;;;4.80;;
15706;SDS011;7953;54.302;10.128;2023-07-22T14:51:23;6.37;;;4.67;;
15706;SDS011;7953;54.302;10.128;2023-07-22T14:53:49;6.17;;;5.17;;
15706;SDS011;7953;54.302;10.128;2023-07-22T14:56:16;6.20;;;4.90;;
15706;SDS011;7953;54.302;10.128;2023-07-22T14:58:45;6.63;;;4.43;;
15706;SDS011;7953;54.302;10.128;2023-07-22T15:01:12;7.67;;;5.50;;
15706;SDS011;7953;54.302;10.128;2023-07-22T15:03:39;6.17;;;4.90;;
15706;SDS011;7953;54.302;10.128;2023-07-22T15:06:06;5.87;;;5.13;;
15706;SDS011;7953;54.302;10.128;2023-07-22T15:08:33;8.13;;;5.20;;
15706;SDS011;7953;54.302;10.128;2023-07-22T15:11:00;6.37;;;4.50;;